HB239 SAVT-SAZN
Flight info
| Callsign | HB239 |
|---|---|
| Flight time | 0h 58m |
| Altitude | 36000 |
| Route | SILAN3C SILAN DCT OTADO DCT ROPON ROPON3Q |
| Aircraft | A20N/M-SDE2E3FGHIRWXY/LB1 |
Departure
| Time | 2026-05-03 20:15 |
|---|---|
| Airport | Almirante Marco Andres Zar Airport (SAVT) |
Arrival
| Time | 2026-05-03 21:13 |
|---|---|
| Airport | Presidente Perón International Airport (SAZN) |
| Time | Latitude | Longitude | Altitude | Speed | Heading |
|---|---|---|---|---|---|
| 2026-05-03 20:15 | -43.20005 | -65.53903 | 8491 ft | 256 kts | 284° |
| 2026-05-03 20:15 | -43.19486 | -65.56229 | 8589 ft | 256 kts | 284° |
| 2026-05-03 20:15 | -43.18966 | -65.58558 | 8598 ft | 256 kts | 284° |
| 2026-05-03 20:15 | -43.18440 | -65.60900 | 8584 ft | 256 kts | 284° |
| 2026-05-03 20:16 | -43.17910 | -65.63251 | 8586 ft | 257 kts | 284° |
| 2026-05-03 20:16 | -43.17386 | -65.65568 | 8590 ft | 256 kts | 284° |
| 2026-05-03 20:16 | -43.16859 | -65.67893 | 8580 ft | 256 kts | 284° |
| 2026-05-03 20:16 | -43.16327 | -65.70240 | 8570 ft | 255 kts | 284° |
| 2026-05-03 20:17 | -43.15801 | -65.72552 | 8584 ft | 255 kts | 284° |
| 2026-05-03 20:17 | -43.15277 | -65.74859 | 8561 ft | 256 kts | 284° |
| 2026-05-03 20:17 | -43.14748 | -65.77182 | 8580 ft | 256 kts | 284° |
| 2026-05-03 20:17 | -43.14213 | -65.79526 | 8571 ft | 255 kts | 284° |
| 2026-05-03 20:18 | -43.13684 | -65.81845 | 8641 ft | 257 kts | 284° |
| 2026-05-03 20:18 | -43.13150 | -65.84180 | 9151 ft | 258 kts | 284° |
| 2026-05-03 20:18 | -43.12614 | -65.86527 | 9938 ft | 266 kts | 284° |
| 2026-05-03 20:18 | -43.12034 | -65.89080 | 10337 ft | 292 kts | 284° |
| 2026-05-03 20:19 | -43.11409 | -65.91821 | 10511 ft | 305 kts | 285° |
| 2026-05-03 20:19 | -43.10774 | -65.94574 | 10575 ft | 305 kts | 285° |
| 2026-05-03 20:19 | -43.10138 | -65.97326 | 10575 ft | 304 kts | 285° |
| 2026-05-03 20:19 | -43.09496 | -66.00105 | 10574 ft | 304 kts | 285° |
| 2026-05-03 20:20 | -43.08858 | -66.02868 | 10578 ft | 304 kts | 285° |
| 2026-05-03 20:20 | -43.08146 | -66.05575 | 10582 ft | 306 kts | 291° |
| 2026-05-03 20:20 | -43.07077 | -66.08097 | 10582 ft | 309 kts | 302° |
| 2026-05-03 20:20 | -43.05667 | -66.10310 | 10571 ft | 313 kts | 311° |
| 2026-05-03 20:21 | -43.04093 | -66.12402 | 10567 ft | 313 kts | 310° |
| 2026-05-03 20:21 | -43.02548 | -66.14474 | 10579 ft | 312 kts | 310° |
| 2026-05-03 20:21 | -43.01012 | -66.16544 | 10582 ft | 312 kts | 310° |
| 2026-05-03 20:21 | -42.99461 | -66.18635 | 10624 ft | 314 kts | 310° |
| 2026-05-03 20:22 | -42.97882 | -66.20765 | 11214 ft | 317 kts | 310° |
| 2026-05-03 20:22 | -42.96319 | -66.22867 | 12298 ft | 316 kts | 310° |
| 2026-05-03 20:22 | -42.94755 | -66.24971 | 13255 ft | 320 kts | 310° |
| 2026-05-03 20:22 | -42.93152 | -66.27126 | 14081 ft | 323 kts | 310° |
| 2026-05-03 20:23 | -42.91551 | -66.29276 | 14919 ft | 326 kts | 310° |
| 2026-05-03 20:23 | -42.89924 | -66.31459 | 15751 ft | 329 kts | 310° |
| 2026-05-03 20:23 | -42.88290 | -66.33649 | 16548 ft | 333 kts | 310° |
| 2026-05-03 20:23 | -42.86627 | -66.35875 | 17358 ft | 337 kts | 310° |
| 2026-05-03 20:24 | -42.84839 | -66.38031 | 18122 ft | 345 kts | 318° |
| 2026-05-03 20:24 | -42.82773 | -66.39737 | 18816 ft | 354 kts | 328° |
| 2026-05-03 20:24 | -42.80430 | -66.40930 | 19513 ft | 365 kts | 338° |
| 2026-05-03 20:24 | -42.77973 | -66.41770 | 20186 ft | 369 kts | 339° |
| 2026-05-03 20:25 | -42.75456 | -66.42634 | 20866 ft | 373 kts | 339° |
| 2026-05-03 20:25 | -42.72939 | -66.43507 | 21526 ft | 377 kts | 338° |
| 2026-05-03 20:25 | -42.70396 | -66.44394 | 22192 ft | 380 kts | 338° |
| 2026-05-03 20:25 | -42.67795 | -66.45302 | 22829 ft | 384 kts | 338° |
| 2026-05-03 20:26 | -42.65187 | -66.46212 | 23434 ft | 387 kts | 338° |
| 2026-05-03 20:26 | -42.62582 | -66.47119 | 24037 ft | 388 kts | 338° |
| 2026-05-03 20:26 | -42.59961 | -66.48030 | 24615 ft | 390 kts | 338° |
| 2026-05-03 20:26 | -42.57327 | -66.48946 | 25163 ft | 392 kts | 338° |
| 2026-05-03 20:27 | -42.54697 | -66.49859 | 25709 ft | 394 kts | 338° |
| 2026-05-03 20:27 | -42.52002 | -66.50794 | 26253 ft | 396 kts | 338° |
| 2026-05-03 20:27 | -42.49321 | -66.51723 | 26776 ft | 398 kts | 338° |
| 2026-05-03 20:27 | -42.46639 | -66.52653 | 27279 ft | 401 kts | 338° |
| 2026-05-03 20:28 | -42.43948 | -66.53585 | 27767 ft | 402 kts | 338° |
| 2026-05-03 20:28 | -42.41220 | -66.54529 | 28227 ft | 405 kts | 338° |
| 2026-05-03 20:28 | -42.38493 | -66.55472 | 28677 ft | 407 kts | 338° |
| 2026-05-03 20:28 | -42.35756 | -66.56417 | 29102 ft | 409 kts | 337° |
| 2026-05-03 20:29 | -42.32965 | -66.57380 | 29534 ft | 411 kts | 337° |
| 2026-05-03 20:29 | -42.30202 | -66.58332 | 29928 ft | 413 kts | 337° |
| 2026-05-03 20:29 | -42.27410 | -66.59294 | 30339 ft | 414 kts | 337° |
| 2026-05-03 20:29 | -42.24618 | -66.60254 | 30741 ft | 415 kts | 338° |
| 2026-05-03 20:30 | -42.21812 | -66.61217 | 31218 ft | 414 kts | 338° |
| 2026-05-03 20:30 | -42.19045 | -66.62165 | 31747 ft | 411 kts | 338° |
| 2026-05-03 20:30 | -42.16260 | -66.63119 | 32280 ft | 409 kts | 337° |
| 2026-05-03 20:30 | -42.13519 | -66.64058 | 32787 ft | 406 kts | 337° |
| 2026-05-03 20:31 | -42.10793 | -66.64992 | 33285 ft | 404 kts | 337° |
| 2026-05-03 20:31 | -42.08074 | -66.65923 | 33749 ft | 402 kts | 337° |
| 2026-05-03 20:31 | -42.05348 | -66.66856 | 34073 ft | 402 kts | 337° |
| 2026-05-03 20:31 | -42.02664 | -66.67775 | 34351 ft | 403 kts | 337° |
| 2026-05-03 20:32 | -41.99910 | -66.68717 | 34642 ft | 404 kts | 337° |
| 2026-05-03 20:32 | -41.97203 | -66.69642 | 34929 ft | 405 kts | 337° |
| 2026-05-03 20:32 | -41.94480 | -66.70570 | 35208 ft | 406 kts | 337° |
| 2026-05-03 20:32 | -41.91727 | -66.71507 | 35481 ft | 406 kts | 337° |
| 2026-05-03 20:33 | -41.89003 | -66.72434 | 35618 ft | 406 kts | 337° |
| 2026-05-03 20:33 | -41.83534 | -66.74290 | 35641 ft | 405 kts | 336° |
| 2026-05-03 20:34 | -41.78056 | -66.76149 | 35644 ft | 405 kts | 336° |
| 2026-05-03 20:34 | -41.72658 | -66.77967 | 35649 ft | 388 kts | 336° |
| 2026-05-03 20:35 | -41.67481 | -66.79717 | 35654 ft | 388 kts | 336° |
| 2026-05-03 20:35 | -41.62238 | -66.81498 | 35657 ft | 389 kts | 336° |
| 2026-05-03 20:36 | -41.56955 | -66.83278 | 35660 ft | 391 kts | 336° |
| 2026-05-03 20:36 | -41.51703 | -66.85045 | 35668 ft | 391 kts | 336° |
| 2026-05-03 20:37 | -41.46394 | -66.86827 | 35665 ft | 392 kts | 336° |
| 2026-05-03 20:37 | -41.41103 | -66.88601 | 35663 ft | 392 kts | 336° |
| 2026-05-03 20:38 | -41.35823 | -66.90368 | 35670 ft | 393 kts | 336° |
| 2026-05-03 20:38 | -41.30483 | -66.92152 | 35672 ft | 395 kts | 336° |
| 2026-05-03 20:39 | -41.25182 | -66.93920 | 35684 ft | 396 kts | 336° |
| 2026-05-03 20:39 | -41.19806 | -66.95709 | 35693 ft | 397 kts | 336° |
| 2026-05-03 20:40 | -41.14445 | -66.97491 | 35693 ft | 398 kts | 336° |
| 2026-05-03 20:40 | -41.09073 | -66.99274 | 35705 ft | 399 kts | 336° |
| 2026-05-03 20:41 | -41.03703 | -67.01052 | 35703 ft | 400 kts | 336° |
| 2026-05-03 20:41 | -40.98289 | -67.02842 | 35708 ft | 400 kts | 336° |
| 2026-05-03 20:42 | -40.92856 | -67.04635 | 35711 ft | 401 kts | 336° |
| 2026-05-03 20:42 | -40.87455 | -67.06414 | 35715 ft | 401 kts | 336° |
| 2026-05-03 20:43 | -40.82032 | -67.08198 | 35719 ft | 401 kts | 336° |
| 2026-05-03 20:43 | -40.76623 | -67.09975 | 35718 ft | 401 kts | 336° |
| 2026-05-03 20:44 | -40.71189 | -67.11757 | 35721 ft | 401 kts | 336° |
| 2026-05-03 20:44 | -40.65789 | -67.13524 | 35721 ft | 401 kts | 335° |
| 2026-05-03 20:45 | -40.60381 | -67.15291 | 35720 ft | 400 kts | 335° |
| 2026-05-03 20:45 | -40.54973 | -67.17055 | 35722 ft | 400 kts | 335° |
| 2026-05-03 20:46 | -40.49563 | -67.18817 | 35724 ft | 399 kts | 335° |
| 2026-05-03 20:46 | -40.44169 | -67.20572 | 35723 ft | 399 kts | 335° |
| 2026-05-03 20:47 | -40.38747 | -67.22147 | 35724 ft | 405 kts | 340° |
| 2026-05-03 20:47 | -40.33183 | -67.23268 | 35726 ft | 405 kts | 340° |
| 2026-05-03 20:48 | -40.27583 | -67.24413 | 35733 ft | 405 kts | 340° |
| 2026-05-03 20:48 | -40.22047 | -67.25545 | 35736 ft | 405 kts | 340° |
| 2026-05-03 20:49 | -40.16373 | -67.26717 | 35445 ft | 424 kts | 340° |
| 2026-05-03 20:49 | -40.13436 | -67.27324 | 34939 ft | 432 kts | 341° |
| 2026-05-03 20:49 | -40.10480 | -67.27923 | 34083 ft | 433 kts | 341° |
| 2026-05-03 20:49 | -40.07483 | -67.28530 | 33103 ft | 438 kts | 341° |
| 2026-05-03 20:50 | -40.04453 | -67.29140 | 32283 ft | 437 kts | 341° |
| 2026-05-03 20:50 | -40.01442 | -67.29748 | 31422 ft | 438 kts | 342° |
| 2026-05-03 20:50 | -39.98451 | -67.30353 | 30684 ft | 436 kts | 342° |
| 2026-05-03 20:50 | -39.95443 | -67.30958 | 30097 ft | 431 kts | 342° |
| 2026-05-03 20:51 | -39.92516 | -67.31548 | 29429 ft | 427 kts | 342° |
| 2026-05-03 20:51 | -39.89606 | -67.32135 | 28806 ft | 421 kts | 342° |
| 2026-05-03 20:51 | -39.86703 | -67.32720 | 28195 ft | 415 kts | 342° |
| 2026-05-03 20:51 | -39.83865 | -67.33293 | 27585 ft | 411 kts | 342° |
| 2026-05-03 20:52 | -39.82006 | -67.33668 | 27190 ft | 408 kts | 342° |
| 2026-05-03 20:52 | -39.78299 | -67.34417 | 26396 ft | 403 kts | 342° |
| 2026-05-03 20:52 | -39.75551 | -67.34972 | 25798 ft | 399 kts | 342° |
| 2026-05-03 20:52 | -39.73712 | -67.35343 | 25407 ft | 397 kts | 342° |
| 2026-05-03 20:53 | -39.70089 | -67.36073 | 24593 ft | 395 kts | 342° |
| 2026-05-03 20:53 | -39.67388 | -67.36617 | 23971 ft | 393 kts | 342° |
| 2026-05-03 20:53 | -39.65590 | -67.36979 | 23620 ft | 391 kts | 342° |
| 2026-05-03 20:53 | -39.62876 | -67.37524 | 22961 ft | 389 kts | 342° |
| 2026-05-03 20:54 | -39.60207 | -67.38058 | 22376 ft | 385 kts | 342° |
| 2026-05-03 20:54 | -39.54973 | -67.39105 | 21200 ft | 378 kts | 342° |
| 2026-05-03 20:54 | -39.52401 | -67.39620 | 20627 ft | 374 kts | 342° |
| 2026-05-03 20:55 | -39.49835 | -67.40134 | 20042 ft | 372 kts | 342° |
| 2026-05-03 20:55 | -39.47295 | -67.40643 | 19465 ft | 370 kts | 342° |
| 2026-05-03 20:55 | -39.44736 | -67.41155 | 18839 ft | 369 kts | 342° |
| 2026-05-03 20:55 | -39.42217 | -67.41659 | 18295 ft | 366 kts | 342° |
| 2026-05-03 20:56 | -39.39711 | -67.42159 | 17676 ft | 364 kts | 343° |
| 2026-05-03 20:56 | -39.37212 | -67.42654 | 17097 ft | 360 kts | 342° |
| 2026-05-03 20:56 | -39.34771 | -67.43138 | 16531 ft | 356 kts | 342° |
| 2026-05-03 20:56 | -39.32304 | -67.43628 | 15956 ft | 353 kts | 342° |
| 2026-05-03 20:57 | -39.29899 | -67.44106 | 15398 ft | 350 kts | 342° |
| 2026-05-03 20:57 | -39.27491 | -67.44584 | 14841 ft | 347 kts | 342° |
| 2026-05-03 20:57 | -39.25128 | -67.45054 | 14290 ft | 345 kts | 342° |
| 2026-05-03 20:57 | -39.22772 | -67.45522 | 13721 ft | 343 kts | 342° |
| 2026-05-03 20:58 | -39.20432 | -67.45986 | 13157 ft | 340 kts | 342° |
| 2026-05-03 20:58 | -39.18080 | -67.46451 | 12609 ft | 336 kts | 342° |
| 2026-05-03 20:58 | -39.15792 | -67.46902 | 12077 ft | 332 kts | 342° |
| 2026-05-03 20:58 | -39.13529 | -67.47349 | 11548 ft | 329 kts | 342° |
| 2026-05-03 20:59 | -39.11266 | -67.47797 | 11018 ft | 326 kts | 342° |
| 2026-05-03 20:59 | -39.09019 | -67.48242 | 10527 ft | 323 kts | 342° |
| 2026-05-03 20:59 | -39.06843 | -67.48669 | 10285 ft | 314 kts | 342° |
| 2026-05-03 20:59 | -39.04716 | -67.49079 | 10150 ft | 299 kts | 341° |
| 2026-05-03 21:00 | -39.02721 | -67.49459 | 9888 ft | 283 kts | 341° |
| 2026-05-03 21:00 | -39.01426 | -67.49714 | 9619 ft | 281 kts | 341° |
| 2026-05-03 21:00 | -38.98880 | -67.50226 | 9083 ft | 277 kts | 341° |
| 2026-05-03 21:00 | -38.97030 | -67.50668 | 8896 ft | 260 kts | 331° |
| 2026-05-03 21:01 | -38.95497 | -67.51793 | 8739 ft | 249 kts | 310° |
| 2026-05-03 21:01 | -38.94483 | -67.53536 | 8413 ft | 244 kts | 290° |
| 2026-05-03 21:01 | -38.94096 | -67.55632 | 8067 ft | 239 kts | 272° |
| 2026-05-03 21:01 | -38.94144 | -67.57739 | 7734 ft | 236 kts | 269° |
| 2026-05-03 21:02 | -38.94195 | -67.59824 | 7394 ft | 232 kts | 270° |
| 2026-05-03 21:02 | -38.94237 | -67.61888 | 7068 ft | 229 kts | 270° |
| 2026-05-03 21:02 | -38.94273 | -67.63910 | 6744 ft | 226 kts | 270° |
| 2026-05-03 21:02 | -38.94308 | -67.65934 | 6420 ft | 223 kts | 270° |
| 2026-05-03 21:03 | -38.94342 | -67.67910 | 6090 ft | 221 kts | 271° |
| 2026-05-03 21:03 | -38.94373 | -67.69860 | 5769 ft | 218 kts | 271° |
| 2026-05-03 21:03 | -38.94404 | -67.71797 | 5457 ft | 216 kts | 271° |
| 2026-05-03 21:03 | -38.94434 | -67.73688 | 5292 ft | 208 kts | 271° |
| 2026-05-03 21:04 | -38.94463 | -67.75496 | 5197 ft | 194 kts | 271° |
| 2026-05-03 21:04 | -38.94490 | -67.77160 | 5108 ft | 181 kts | 271° |
| 2026-05-03 21:04 | -38.94515 | -67.78729 | 5043 ft | 168 kts | 271° |
| 2026-05-03 21:04 | -38.94541 | -67.80132 | 5006 ft | 148 kts | 272° |
| 2026-05-03 21:05 | -38.94561 | -67.81390 | 4973 ft | 131 kts | 272° |
| 2026-05-03 21:05 | -38.94588 | -67.82485 | 4921 ft | 116 kts | 271° |
| 2026-05-03 21:05 | -38.94624 | -67.83485 | 4716 ft | 112 kts | 271° |
| 2026-05-03 21:05 | -38.94664 | -67.84466 | 4520 ft | 109 kts | 271° |
| 2026-05-03 21:06 | -38.94701 | -67.85478 | 4340 ft | 117 kts | 271° |
| 2026-05-03 21:06 | -38.94738 | -67.86505 | 4180 ft | 115 kts | 270° |
| 2026-05-03 21:06 | -38.94777 | -67.87556 | 4013 ft | 117 kts | 270° |
| 2026-05-03 21:06 | -38.94816 | -67.88592 | 3844 ft | 117 kts | 270° |
| 2026-05-03 21:07 | -38.94855 | -67.89634 | 3674 ft | 117 kts | 270° |
| 2026-05-03 21:07 | -38.94891 | -67.90675 | 3582 ft | 116 kts | 270° |
| 2026-05-03 21:07 | -38.94928 | -67.91719 | 3584 ft | 118 kts | 270° |
| 2026-05-03 21:07 | -38.94963 | -67.92768 | 3566 ft | 119 kts | 271° |
| 2026-05-03 21:08 | -38.94969 | -67.93812 | 3439 ft | 114 kts | 272° |
| 2026-05-03 21:08 | -38.94962 | -67.94838 | 3193 ft | 116 kts | 273° |
| 2026-05-03 21:08 | -38.94951 | -67.95891 | 3016 ft | 118 kts | 272° |
| 2026-05-03 21:08 | -38.94945 | -67.96944 | 2860 ft | 118 kts | 272° |
| 2026-05-03 21:09 | -38.94942 | -67.98016 | 2697 ft | 122 kts | 272° |
| 2026-05-03 21:09 | -38.94938 | -67.99100 | 2574 ft | 120 kts | 272° |
| 2026-05-03 21:09 | -38.94936 | -68.00177 | 2574 ft | 122 kts | 272° |
| 2026-05-03 21:09 | -38.94934 | -68.01261 | 2572 ft | 121 kts | 272° |
| 2026-05-03 21:10 | -38.94933 | -68.02344 | 2574 ft | 121 kts | 272° |
| 2026-05-03 21:10 | -38.94930 | -68.03424 | 2550 ft | 123 kts | 271° |
| 2026-05-03 21:10 | -38.94927 | -68.04516 | 2408 ft | 119 kts | 271° |
| 2026-05-03 21:10 | -38.94924 | -68.05569 | 2152 ft | 121 kts | 272° |
| 2026-05-03 21:11 | -38.94920 | -68.06690 | 2001 ft | 129 kts | 271° |
| 2026-05-03 21:11 | -38.94915 | -68.07844 | 1833 ft | 127 kts | 271° |
| 2026-05-03 21:11 | -38.94911 | -68.08976 | 1669 ft | 128 kts | 271° |
| 2026-05-03 21:11 | -38.94908 | -68.10111 | 1546 ft | 128 kts | 270° |
| 2026-05-03 21:12 | -38.94905 | -68.11249 | 1317 ft | 128 kts | 270° |
| 2026-05-03 21:12 | -38.94902 | -68.12392 | 1174 ft | 129 kts | 269° |
| 2026-05-03 21:12 | -38.94906 | -68.13548 | 1086 ft | 129 kts | 269° |
| 2026-05-03 21:12 | -38.94903 | -68.14697 | 945 ft | 128 kts | 270° |
| 2026-05-03 21:13 | -38.94899 | -68.15792 | 898 ft | 113 kts | 269° |
| 2026-05-03 21:13 | -38.94899 | -68.16413 | 897 ft | 27 kts | 270° |
| 2026-05-03 21:13 | -38.94897 | -68.16659 | 896 ft | 29 kts | 270° |
| 2026-05-03 21:13 | -38.94903 | -68.16864 | 897 ft | 20 kts | 258° |
| 2026-05-03 21:14 | -38.94939 | -68.16986 | 898 ft | 10 kts | 273° |
| 2026-05-03 21:14 | -38.94896 | -68.16980 | 898 ft | 9 kts | 79° |
| 2026-05-03 21:14 | -38.94895 | -68.16876 | 897 ft | 14 kts | 91° |
| 2026-05-03 21:14 | -38.94900 | -68.16728 | 896 ft | 18 kts | 89° |
| 2026-05-03 21:15 | -38.94896 | -68.16552 | 897 ft | 21 kts | 88° |
| 2026-05-03 21:15 | -38.94895 | -68.16354 | 897 ft | 24 kts | 91° |
| 2026-05-03 21:15 | -38.94897 | -68.16129 | 898 ft | 26 kts | 90° |
| 2026-05-03 21:15 | -38.94898 | -68.15892 | 898 ft | 28 kts | 90° |
| 2026-05-03 21:16 | -38.94898 | -68.15631 | 897 ft | 31 kts | 90° |
| 2026-05-03 21:16 | -38.94900 | -68.15348 | 894 ft | 33 kts | 90° |
| 2026-05-03 21:16 | -38.94901 | -68.15163 | 892 ft | 4 kts | 93° |
| 2026-05-03 21:16 | -38.94902 | -68.15151 | 892 ft | 6 kts | 97° |
| 2026-05-03 21:17 | -38.94939 | -68.15078 | 892 ft | 13 kts | 134° |
| 2026-05-03 21:17 | -38.94984 | -68.15021 | 893 ft | 15 kts | 136° |
| 2026-05-03 21:17 | -38.95061 | -68.14927 | 893 ft | 0 kts | 134° |
| 2026-05-03 21:18 | -38.95062 | -68.14925 | 893 ft | 2 kts | 134° |
| 2026-05-03 21:19 | -38.95085 | -68.14879 | 893 ft | 10 kts | 109° |
| 2026-05-03 21:19 | -38.95091 | -68.14769 | 893 ft | 15 kts | 90° |
| 2026-05-03 21:19 | -38.95090 | -68.14621 | 892 ft | 18 kts | 90° |
| 2026-05-03 21:19 | -38.95091 | -68.14443 | 892 ft | 22 kts | 90° |
| 2026-05-03 21:20 | -38.95091 | -68.14272 | 891 ft | 14 kts | 89° |
| 2026-05-03 21:20 | -38.95091 | -68.14161 | 891 ft | 11 kts | 90° |
| 2026-05-03 21:20 | -38.95092 | -68.14071 | 891 ft | 10 kts | 90° |
| 2026-05-03 21:20 | -38.95118 | -68.14033 | 891 ft | 6 kts | 179° |
| 2026-05-03 21:21 | -38.95148 | -68.14080 | 891 ft | 9 kts | 250° |
| 2026-05-03 21:21 | -38.95148 | -68.14110 | 891 ft | 2 kts | 296° |
| 2026-05-03 21:21 | -38.95132 | -68.14120 | 891 ft | 1 kts | 334° |
| 2026-05-03 21:21 | -38.95128 | -68.14123 | 891 ft | 0 kts | 333° |